Rickmers New Orleans — V7FF2 — position and weather

sailwx.info

Track history (hours):
 
Tides and Currents Weather Stations Pressure Air Temp Water Temp Dewpoint Dewpoint Depression Visibility Wind Speed Wind Dir Waves Ship Positions

Rickmers New Orleans

Last reported at 2015-Aug-30 14:18 UTC. Time now 2015-Sep-04 12:29 UTC.
Position N 31°53' E 031°37'.

Length 192.9 m; beam 27.8 m; draft 11.2 m.

Type: Ship (hazmat cat A). MMSI: 538001922.

Date/timePositionNaut miles runAvg speedWind from/ knotsBaromVisibWave heightAir tempDewpointWater temp
2015-Aug-30 14:18N 31°53' E 031°37'  
2015-Aug-28 07:04N 37°40' E 016°09'1415.9
2015-Aug-28 06:11N 37°46' E 015°53'1015.8
2015-Aug-28 05:33N 37°51' E 015°41'1414.2
2015-Aug-28 04:34N 38°04' E 015°34'1212.0
2015-Aug-28 03:33N 38°15' E 015°39'9 8.7
2015-Aug-28 02:33N 38°23' E 015°35'1211.9
2015-Aug-28 01:33N 38°32' E 015°24'1716.4
2015-Aug-28 00:30N 38°44' E 015°09'1616.3
2015-Aug-27 23:32N 38°55' E 014°53'1616.3
2015-Aug-27 22:34N 39°05' E 014°38'35916.1
2015-Aug-27 00:20N 43°33' E 009°21'1316.6
2015-Aug-26 23:34N 43°45' E 009°15'1716.5
2015-Aug-26 22:34N 44°01' E 009°07'1716.5
2015-Aug-26 21:33N 44°16' E 008°60'9 8.9
2015-Aug-26 20:32N 44°24' E 008°53'0 0.0
2015-Aug-26 19:32N 44°24' E 008°53'0 0.0
2015-Aug-26 18:32N 44°24' E 008°53'0 0.0
2015-Aug-26 17:32N 44°24' E 008°53'0 0.0
2015-Aug-26 16:26N 44°24' E 008°53'0 0.0
2015-Aug-26 15:29N 44°24' E 008°53'0 0.0
2015-Aug-26 14:29N 44°24' E 008°53'0 0.0
2015-Aug-26 13:29N 44°24' E 008°53'0 0.0
2015-Aug-26 12:32N 44°24' E 008°53'0 0.0
2015-Aug-26 11:29N 44°24' E 008°53'0 0.0
2015-Aug-26 10:32N 44°24' E 008°53'0 0.0
2015-Aug-26 09:32N 44°24' E 008°53'0 0.0
2015-Aug-26 08:32N 44°24' E 008°53'0 0.0
2015-Aug-26 07:32N 44°24' E 008°53'0 0.0
2015-Aug-26 06:32N 44°24' E 008°53'0 0.0
2015-Aug-26 05:32N 44°24' E 008°53'0 0.0
2015-Aug-26 04:32N 44°24' E 008°53'0 0.0
2015-Aug-26 03:32N 44°24' E 008°53'0 0.0
2015-Aug-26 02:32N 44°24' E 008°53'0 0.0
2015-Aug-26 01:26N 44°24' E 008°53'0 0.0
2015-Aug-26 00:29N 44°24' E 008°53'0 0.0
2015-Aug-25 23:32N 44°24' E 008°53'0 0.0
2015-Aug-25 22:29N 44°24' E 008°53'0 0.0
2015-Aug-25 21:29N 44°24' E 008°53'0 0.0
2015-Aug-25 20:32N 44°24' E 008°53'0 0.0
2015-Aug-25 19:32N 44°24' E 008°53'0 0.0
2015-Aug-25 18:32N 44°24' E 008°53'0 0.0
2015-Aug-25 17:32N 44°24' E 008°53'0 0.0
2015-Aug-25 16:32N 44°24' E 008°53'0 0.0
2015-Aug-25 15:32N 44°24' E 008°53'0 0.0
2015-Aug-25 14:32N 44°24' E 008°53'0 0.0
2015-Aug-25 13:26N 44°24' E 008°53'0 0.0
2015-Aug-25 12:32N 44°24' E 008°53'0 0.0
2015-Aug-25 11:32N 44°24' E 008°53'0 0.0
2015-Aug-25 10:29N 44°24' E 008°53'0 0.0
2015-Aug-25 09:29N 44°24' E 008°53'0 0.0
2015-Aug-25 08:26N 44°24' E 008°53'4 4.2
2015-Aug-25 07:33N 44°22' E 008°58'1211.8
2015-Aug-25 06:33N 44°13' E 008°48'1413.4
2015-Aug-25 05:33N 44°04' E 008°34'5413.4
2015-Aug-25 01:33N 43°27' E 007°39'1313.3
2015-Aug-25 00:34N 43°19' E 007°25'1313.2
2015-Aug-24 23:33N 43°10' E 007°12'1313.1
2015-Aug-24 22:33N 43°01' E 006°59'1312.8
2015-Aug-24 21:33N 42°52' E 006°46'19613.6
2015-Aug-24 07:07N 40°40' E 003°31'814.0
2015-Aug-24 06:33N 40°35' E 003°23'1616.5
2015-Aug-24 05:33N 40°24' E 003°07'1716.8
2015-Aug-24 04:33N 40°13' E 002°51'1716.9
2015-Aug-24 03:33N 40°01' E 002°35'1717.2
2015-Aug-24 02:33N 39°50' E 002°18'1717.0
2015-Aug-24 01:33N 39°38' E 002°02'1716.7
2015-Aug-24 00:34N 39°26' E 001°47'5016.7
2015-Aug-23 21:33N 38°52' E 000°59'1716.9
2015-Aug-23 20:33N 38°40' E 000°45'1716.7
2015-Aug-23 19:33N 38°27' E 000°31'1716.8
2015-Aug-23 18:33N 38°14' E 000°17'1716.7
2015-Aug-23 17:33N 38°01' E 000°03'1716.6
2015-Aug-23 16:30N 37°48' W 000°11'1616.7
2015-Aug-23 15:32N 37°35' W 000°24'1716.4
2015-Aug-23 14:29N 37°23' W 000°40'1716.9
2015-Aug-23 13:29N 37°13' W 000°56'36316.3
2015-Aug-22 15:11N 36°22' W 008°25'7312.1
2015-Aug-22 09:09N 37°20' W 009°20'1016.7
2015-Aug-22 08:33N 37°29' W 009°13'1616.5
2015-Aug-22 07:33N 37°43' W 009°02'1414.1
2015-Aug-22 06:33N 37°55' W 008°54'2 2.2
2015-Aug-22 05:32N 37°56' W 008°51'0 0.0
2015-Aug-22 04:29N 37°56' W 008°51'0 0.0
2015-Aug-22 03:32N 37°56' W 008°51'0 0.0
2015-Aug-22 02:32N 37°56' W 008°51'0 0.0
2015-Aug-22 01:32N 37°56' W 008°51'0 0.0
2015-Aug-22 00:32N 37°56' W 008°51'0 0.0
2015-Aug-21 23:32N 37°56' W 008°51'0 0.0
2015-Aug-21 22:32N 37°56' W 008°51'0 0.0
2015-Aug-21 21:32N 37°56' W 008°51'0 0.0
2015-Aug-21 20:32N 37°56' W 008°51'0 0.0
2015-Aug-21 19:32N 37°56' W 008°51'0 0.0
2015-Aug-21 18:32N 37°56' W 008°51'0 0.0
2015-Aug-21 17:29N 37°56' W 008°51'0 0.0
2015-Aug-21 16:32N 37°56' W 008°51'0 0.0
2015-Aug-21 15:32N 37°56' W 008°51'0 0.0
2015-Aug-21 14:32N 37°56' W 008°51'0 0.0
2015-Aug-21 13:33N 37°56' W 008°51'4 4.3
2015-Aug-21 12:33N 37°55' W 008°57'1413.6
2015-Aug-21 11:33N 37°60' W 009°13'1413.9
2015-Aug-21 10:33N 38°05' W 009°29'1313.3
2015-Aug-21 09:34N 38°10' W 009°45'1413.5
2015-Aug-21 08:33N 38°22' W 009°53'1414.0
2015-Aug-21 07:33N 38°34' W 010°02'1313.4
2015-Aug-21 06:34N 38°47' W 010°05'1514.4
2015-Aug-21 05:33N 39°01' W 010°06'1313.5
2015-Aug-21 04:33N 39°15' W 010°07'1414.0
2015-Aug-21 03:33N 39°29' W 010°06'1414.1
2015-Aug-21 02:33N 39°43' W 010°06'1414.2
2015-Aug-21 01:33N 39°57' W 010°06'1414.1
2015-Aug-21 00:34N 40°11' W 010°06'1414.2
2015-Aug-20 23:33N 40°25' W 010°06'1414.1
2015-Aug-20 22:32N 40°40' W 010°07'1514.3
2015-Aug-20 21:29N 40°55' W 010°06'4414.0
2015-Aug-20 18:23N 41°38' W 010°06'1413.9
2015-Aug-20 17:23N 41°52' W 010°06'1614.0
2015-Aug-20 16:15N 42°08' W 010°07'1013.9
2015-Aug-20 15:33N 42°18' W 010°06'1514.1
2015-Aug-20 14:27N 42°33' W 010°06'  
Track history (hours):
 
Tides and Currents Weather Stations Pressure Air Temp Water Temp Dewpoint Dewpoint Depression Visibility Wind Speed Wind Dir Waves Ship Positions

Rickmers New Orleans

Last reported at 2015-Aug-30 14:18 UTC. Time now 2015-Sep-04 12:29 UTC.
Position N 31°53' E 031°37'.

Length 192.9 m; beam 27.8 m; draft 11.2 m.

Type: Ship (hazmat cat A). MMSI: 538001922.

Date/timePositionNaut miles runAvg speedWind from/ knotsBaromVisibWave heightAir tempDewpointWater temp
2015-Aug-30 14:18N 31°53' E 031°37'  
2015-Aug-28 07:04N 37°40' E 016°09'1415.9
2015-Aug-28 06:11N 37°46' E 015°53'1015.8
2015-Aug-28 05:33N 37°51' E 015°41'1414.2
2015-Aug-28 04:34N 38°04' E 015°34'1212.0
2015-Aug-28 03:33N 38°15' E 015°39'9 8.7
2015-Aug-28 02:33N 38°23' E 015°35'1211.9
2015-Aug-28 01:33N 38°32' E 015°24'1716.4
2015-Aug-28 00:30N 38°44' E 015°09'1616.3
2015-Aug-27 23:32N 38°55' E 014°53'1616.3
2015-Aug-27 22:34N 39°05' E 014°38'35916.1
2015-Aug-27 00:20N 43°33' E 009°21'1316.6
2015-Aug-26 23:34N 43°45' E 009°15'1716.5
2015-Aug-26 22:34N 44°01' E 009°07'1716.5
2015-Aug-26 21:33N 44°16' E 008°60'9 8.9
2015-Aug-26 20:32N 44°24' E 008°53'0 0.0
2015-Aug-26 19:32N 44°24' E 008°53'0 0.0
2015-Aug-26 18:32N 44°24' E 008°53'0 0.0
2015-Aug-26 17:32N 44°24' E 008°53'0 0.0
2015-Aug-26 16:26N 44°24' E 008°53'0 0.0
2015-Aug-26 15:29N 44°24' E 008°53'0 0.0
2015-Aug-26 14:29N 44°24' E 008°53'0 0.0
2015-Aug-26 13:29N 44°24' E 008°53'0 0.0
2015-Aug-26 12:32N 44°24' E 008°53'0 0.0
2015-Aug-26 11:29N 44°24' E 008°53'0 0.0
2015-Aug-26 10:32N 44°24' E 008°53'0 0.0
2015-Aug-26 09:32N 44°24' E 008°53'0 0.0
2015-Aug-26 08:32N 44°24' E 008°53'0 0.0
2015-Aug-26 07:32N 44°24' E 008°53'0 0.0
2015-Aug-26 06:32N 44°24' E 008°53'0 0.0
2015-Aug-26 05:32N 44°24' E 008°53'0 0.0
2015-Aug-26 04:32N 44°24' E 008°53'0 0.0
2015-Aug-26 03:32N 44°24' E 008°53'0 0.0
2015-Aug-26 02:32N 44°24' E 008°53'0 0.0
2015-Aug-26 01:26N 44°24' E 008°53'0 0.0
2015-Aug-26 00:29N 44°24' E 008°53'0 0.0
2015-Aug-25 23:32N 44°24' E 008°53'0 0.0
2015-Aug-25 22:29N 44°24' E 008°53'0 0.0
2015-Aug-25 21:29N 44°24' E 008°53'0 0.0
2015-Aug-25 20:32N 44°24' E 008°53'0 0.0
2015-Aug-25 19:32N 44°24' E 008°53'0 0.0
2015-Aug-25 18:32N 44°24' E 008°53'0 0.0
2015-Aug-25 17:32N 44°24' E 008°53'0 0.0
2015-Aug-25 16:32N 44°24' E 008°53'0 0.0
2015-Aug-25 15:32N 44°24' E 008°53'0 0.0
2015-Aug-25 14:32N 44°24' E 008°53'0 0.0
2015-Aug-25 13:26N 44°24' E 008°53'0 0.0
2015-Aug-25 12:32N 44°24' E 008°53'0 0.0
2015-Aug-25 11:32N 44°24' E 008°53'0 0.0
2015-Aug-25 10:29N 44°24' E 008°53'0 0.0
2015-Aug-25 09:29N 44°24' E 008°53'0 0.0
2015-Aug-25 08:26N 44°24' E 008°53'4 4.2
2015-Aug-25 07:33N 44°22' E 008°58'1211.8
2015-Aug-25 06:33N 44°13' E 008°48'1413.4
2015-Aug-25 05:33N 44°04' E 008°34'5413.4
2015-Aug-25 01:33N 43°27' E 007°39'1313.3
2015-Aug-25 00:34N 43°19' E 007°25'1313.2
2015-Aug-24 23:33N 43°10' E 007°12'1313.1
2015-Aug-24 22:33N 43°01' E 006°59'1312.8
2015-Aug-24 21:33N 42°52' E 006°46'19613.6
2015-Aug-24 07:07N 40°40' E 003°31'814.0
2015-Aug-24 06:33N 40°35' E 003°23'1616.5
2015-Aug-24 05:33N 40°24' E 003°07'1716.8
2015-Aug-24 04:33N 40°13' E 002°51'1716.9
2015-Aug-24 03:33N 40°01' E 002°35'1717.2
2015-Aug-24 02:33N 39°50' E 002°18'1717.0
2015-Aug-24 01:33N 39°38' E 002°02'1716.7
2015-Aug-24 00:34N 39°26' E 001°47'5016.7
2015-Aug-23 21:33N 38°52' E 000°59'1716.9
2015-Aug-23 20:33N 38°40' E 000°45'1716.7
2015-Aug-23 19:33N 38°27' E 000°31'1716.8
2015-Aug-23 18:33N 38°14' E 000°17'1716.7
2015-Aug-23 17:33N 38°01' E 000°03'1716.6
2015-Aug-23 16:30N 37°48' W 000°11'1616.7
2015-Aug-23 15:32N 37°35' W 000°24'1716.4
2015-Aug-23 14:29N 37°23' W 000°40'1716.9
2015-Aug-23 13:29N 37°13' W 000°56'36316.3
2015-Aug-22 15:11N 36°22' W 008°25'7312.1
2015-Aug-22 09:09N 37°20' W 009°20'1016.7
2015-Aug-22 08:33N 37°29' W 009°13'1616.5
2015-Aug-22 07:33N 37°43' W 009°02'1414.1
2015-Aug-22 06:33N 37°55' W 008°54'2 2.2
2015-Aug-22 05:32N 37°56' W 008°51'0 0.0
2015-Aug-22 04:29N 37°56' W 008°51'0 0.0
2015-Aug-22 03:32N 37°56' W 008°51'0 0.0
2015-Aug-22 02:32N 37°56' W 008°51'0 0.0
2015-Aug-22 01:32N 37°56' W 008°51'0 0.0
2015-Aug-22 00:32N 37°56' W 008°51'0 0.0
2015-Aug-21 23:32N 37°56' W 008°51'0 0.0
2015-Aug-21 22:32N 37°56' W 008°51'0 0.0
2015-Aug-21 21:32N 37°56' W 008°51'0 0.0
2015-Aug-21 20:32N 37°56' W 008°51'0 0.0
2015-Aug-21 19:32N 37°56' W 008°51'0 0.0
2015-Aug-21 18:32N 37°56' W 008°51'0 0.0
2015-Aug-21 17:29N 37°56' W 008°51'0 0.0
2015-Aug-21 16:32N 37°56' W 008°51'0 0.0
2015-Aug-21 15:32N 37°56' W 008°51'0 0.0
2015-Aug-21 14:32N 37°56' W 008°51'0 0.0
2015-Aug-21 13:33N 37°56' W 008°51'4 4.3
2015-Aug-21 12:33N 37°55' W 008°57'1413.6
2015-Aug-21 11:33N 37°60' W 009°13'1413.9
2015-Aug-21 10:33N 38°05' W 009°29'1313.3
2015-Aug-21 09:34N 38°10' W 009°45'1413.5
2015-Aug-21 08:33N 38°22' W 009°53'1414.0
2015-Aug-21 07:33N 38°34' W 010°02'1313.4
2015-Aug-21 06:34N 38°47' W 010°05'1514.4
2015-Aug-21 05:33N 39°01' W 010°06'1313.5
2015-Aug-21 04:33N 39°15' W 010°07'1414.0
2015-Aug-21 03:33N 39°29' W 010°06'1414.1
2015-Aug-21 02:33N 39°43' W 010°06'1414.2
2015-Aug-21 01:33N 39°57' W 010°06'1414.1
2015-Aug-21 00:34N 40°11' W 010°06'1414.2
2015-Aug-20 23:33N 40°25' W 010°06'1414.1
2015-Aug-20 22:32N 40°40' W 010°07'1514.3
2015-Aug-20 21:29N 40°55' W 010°06'4414.0
2015-Aug-20 18:23N 41°38' W 010°06'1413.9
2015-Aug-20 17:23N 41°52' W 010°06'1614.0
2015-Aug-20 16:15N 42°08' W 010°07'1013.9
2015-Aug-20 15:33N 42°18' W 010°06'1514.1
2015-Aug-20 14:27N 42°33' W 010°06'  

Dump ship's entire track history